createdAt,value
2023-05-21T00:02:37.438Z,92
2023-05-21T00:12:39.239Z,92
2023-05-21T00:22:40.952Z,93
2023-05-21T00:32:42.782Z,94
2023-05-21T00:42:45.324Z,95
2023-05-21T00:52:47.221Z,95
2023-05-21T01:02:49.415Z,95
2023-05-21T01:12:51.357Z,95
2023-05-21T01:22:53.625Z,96
2023-05-21T01:32:55.908Z,97
2023-05-21T01:52:59.775Z,97
2023-05-21T02:03:02.243Z,97
2023-05-21T02:13:04.164Z,98
2023-05-21T02:23:06.618Z,99
2023-05-21T02:33:09.283Z,99
2023-05-21T02:43:11.143Z,100
2023-05-21T02:53:13.618Z,100
2023-05-21T03:03:15.420Z,100
2023-05-21T03:13:17.030Z,100
2023-05-21T03:23:18.776Z,100
2023-05-21T03:33:21.025Z,100
2023-05-21T03:43:23.408Z,100
2023-05-21T03:53:25.239Z,100
2023-05-21T04:03:27.780Z,100
2023-05-21T04:13:29.530Z,100
2023-05-21T04:23:31.934Z,100
2023-05-21T04:33:34.330Z,100
2023-05-21T04:43:36.455Z,100
2023-05-21T04:53:38.402Z,100
2023-05-21T05:03:40.537Z,100
2023-05-21T05:13:42.463Z,100
2023-05-21T05:33:46.454Z,100
2023-05-21T05:43:48.141Z,100
2023-05-21T05:53:50.495Z,100
2023-05-21T06:03:52.651Z,100
2023-05-21T06:13:54.904Z,100
2023-05-21T06:23:56.821Z,100
2023-05-21T06:33:59.125Z,100
2023-05-21T06:44:01.277Z,100
2023-05-21T06:54:03.539Z,100
2023-05-21T07:04:05.244Z,100
2023-05-21T07:14:07.276Z,100
2023-05-21T07:34:11.723Z,100
2023-05-21T07:44:13.648Z,100
2023-05-21T07:54:15.644Z,100
2023-05-21T08:04:17.978Z,100
2023-05-21T08:14:20.114Z,98
2023-05-21T08:24:21.764Z,97
2023-05-21T08:34:23.688Z,96
2023-05-21T08:44:26.116Z,95
2023-05-21T09:04:29.845Z,92
2023-05-21T09:24:35.938Z,90
2023-05-21T09:44:37.758Z,89
2023-05-21T09:45:01.696Z,89
2023-05-21T09:54:47.364Z,89
2023-05-21T10:04:49.888Z,87
2023-05-21T10:14:51.670Z,87
2023-05-21T10:24:53.573Z,86
2023-05-21T10:34:55.573Z,84
2023-05-21T10:44:57.939Z,85
2023-05-21T10:54:59.906Z,85
2023-05-21T11:05:02.521Z,84
2023-05-21T11:15:05.133Z,82
2023-05-21T11:25:07.432Z,82
2023-05-21T11:35:09.387Z,81
2023-05-21T11:45:11.585Z,81
2023-05-21T11:55:14.037Z,80
2023-05-21T12:05:16.105Z,81
2023-05-21T12:25:21.004Z,79
2023-05-21T12:35:23.173Z,77
2023-05-21T12:45:25.117Z,77
2023-05-21T12:55:27.232Z,76
2023-05-21T13:15:32.045Z,75
2023-05-21T13:25:34.694Z,74
2023-05-21T13:35:36.764Z,74
2023-05-21T13:45:38.807Z,73
2023-05-21T13:55:41.047Z,69
2023-05-21T14:05:43.524Z,66
2023-05-21T14:25:47.578Z,62
2023-05-21T14:35:50.075Z,63
2023-05-21T14:45:52.354Z,62
2023-05-21T14:55:54.379Z,63
2023-05-21T15:05:56.804Z,63
2023-05-21T15:15:59.276Z,64
2023-05-21T15:26:01.284Z,65
2023-05-21T15:36:03.565Z,66
2023-05-21T15:46:05.925Z,64
2023-05-21T16:06:09.604Z,63
2023-05-21T16:16:11.567Z,64
2023-05-21T16:26:13.343Z,63
2023-05-21T16:36:17.964Z,64
2023-05-21T16:46:18.506Z,65
2023-05-21T16:56:20.340Z,67
2023-05-21T17:06:22.691Z,68
2023-05-21T17:16:25.283Z,68
2023-05-21T17:26:27.641Z,69
2023-05-21T17:36:29.809Z,70
2023-05-21T17:46:32.071Z,72
2023-05-21T17:56:33.794Z,73
2023-05-21T18:06:36.184Z,74
2023-05-21T18:16:38.362Z,76
2023-05-21T18:26:40.804Z,78
2023-05-21T18:36:43.376Z,79
2023-05-21T18:56:48.094Z,82
2023-05-21T19:06:50.172Z,83
2023-05-21T19:26:54.817Z,84
2023-05-21T19:36:57.072Z,86
2023-05-21T19:46:58.725Z,86
2023-05-21T19:57:00.648Z,83
2023-05-21T20:07:03.051Z,81
2023-05-21T20:27:07.870Z,75
2023-05-21T20:37:09.876Z,78
2023-05-21T20:47:12.097Z,83
2023-05-21T20:57:14.219Z,88
2023-05-21T21:07:16.549Z,92
2023-05-21T21:17:18.214Z,97
2023-05-21T21:27:20.007Z,100
2023-05-21T21:47:23.921Z,100
2023-05-21T21:57:26.034Z,100
2023-05-21T22:07:27.750Z,100
2023-05-21T22:17:29.449Z,100
2023-05-21T22:27:31.157Z,100
2023-05-21T22:37:33.359Z,100
2023-05-21T22:47:35.088Z,100
2023-05-21T23:27:43.699Z,100
2023-05-21T23:37:46.044Z,100
2023-05-21T23:57:50.396Z,100
